SLSA/SBL METAR and TAF weather

Enter ICAO airport designator
Station Type Date Time Source
SLSA METAR 2020/07/10 16:00 UTC NOAA

SLSA 101600Z 24004KT 9999 FEW080 24/17 Q1015


Station Type Date Time Source
SLSA Decoded METAR 2020/07/10 16:00 UTC NOAA

Santa Ana, Bolivia (SLSA) 13-46S 065-26W
Jul 10, 2020 - 12:00 PM EDT / 2020.07.10 1600 UTC
Wind: from the WSW (240 degrees) at 5 MPH (4 KT):0
Visibility: greater than 7 mile(s):0
Sky conditions: mostly clear
Temperature: 75 F (24 C)
Dew Point: 62 F (17 C)
Relative Humidity: 64%
Pressure (altimeter): 29.97 in. Hg (1015 hPa)
ob: SLSA 101600Z 24004KT 9999 FEW080 24/17 Q1015
cycle: 16

Station Type Date Time Source
SLSA TAF 2009/01/07 11:00 UTC NOAA

METAR SLSA 071100Z 00000KT 9999 FEW020 BKN080 26/24 Q1009

Example: see airport list